sensor_id;sensor_type;location;lat;lon;timestamp;temperature;humidity
61841;DHT22;47773;53.174;6.614;2023-09-19T00:00:07;15.50;99.90
61841;DHT22;47773;53.174;6.614;2023-09-19T00:02:33;15.40;99.90
61841;DHT22;47773;53.174;6.614;2023-09-19T00:04:59;15.40;99.90
61841;DHT22;47773;53.174;6.614;2023-09-19T00:07:28;15.40;99.90
61841;DHT22;47773;53.174;6.614;2023-09-19T00:09:54;15.40;99.90
61841;DHT22;47773;53.174;6.614;2023-09-19T00:12:20;15.40;99.90
61841;DHT22;47773;53.174;6.614;2023-09-19T00:14:46;15.30;99.90
61841;DHT22;47773;53.174;6.614;2023-09-19T00:17:11;15.30;99.90
61841;DHT22;47773;53.174;6.614;2023-09-19T00:19:37;15.30;99.90
61841;DHT22;47773;53.174;6.614;2023-09-19T00:22:03;15.20;99.90
61841;DHT22;47773;53.174;6.614;2023-09-19T00:24:29;15.20;99.90
61841;DHT22;47773;53.174;6.614;2023-09-19T00:26:56;15.10;99.90
61841;DHT22;47773;53.174;6.614;2023-09-19T00:29:25;15.00;99.90
61841;DHT22;47773;53.174;6.614;2023-09-19T00:31:55;15.00;99.90
61841;DHT22;47773;53.174;6.614;2023-09-19T00:34:21;14.90;99.90
61841;DHT22;47773;53.174;6.614;2023-09-19T00:36:47;14.90;99.90
61841;DHT22;47773;53.174;6.614;2023-09-19T00:39:13;14.80;99.90
61841;DHT22;47773;53.174;6.614;2023-09-19T00:41:38;14.80;99.90
61841;DHT22;47773;53.174;6.614;2023-09-19T00:44:06;14.80;99.90
61841;DHT22;47773;53.174;6.614;2023-09-19T00:46:32;14.70;99.90
61841;DHT22;47773;53.174;6.614;2023-09-19T00:48:58;14.70;99.90
61841;DHT22;47773;53.174;6.614;2023-09-19T00:51:25;14.70;99.90
61841;DHT22;47773;53.174;6.614;2023-09-19T00:53:53;14.60;99.90
61841;DHT22;47773;53.174;6.614;2023-09-19T00:56:19;14.60;99.90
61841;DHT22;47773;53.174;6.614;2023-09-19T00:58:46;14.60;99.90
61841;DHT22;47773;53.174;6.614;2023-09-19T01:01:13;14.60;99.90
61841;DHT22;47773;53.174;6.614;2023-09-19T01:03:41;14.60;99.90
61841;DHT22;47773;53.174;6.614;2023-09-19T01:06:07;14.60;99.90
61841;DHT22;47773;53.174;6.614;2023-09-19T01:08:37;14.50;99.90
61841;DHT22;47773;53.174;6.614;2023-09-19T01:11:13;14.50;99.90
61841;DHT22;47773;53.174;6.614;2023-09-19T01:22:28;14.50;99.90
61841;DHT22;47773;53.174;6.614;2023-09-19T01:28:34;14.40;99.90
61841;DHT22;47773;53.174;6.614;2023-09-19T01:31:04;14.40;99.90
61841;DHT22;47773;53.174;6.614;2023-09-19T01:34:02;14.40;99.90
61841;DHT22;47773;53.174;6.614;2023-09-19T01:36:34;14.40;99.90
61841;DHT22;47773;53.174;6.614;2023-09-19T01:39:04;14.40;99.90
61841;DHT22;47773;53.174;6.614;2023-09-19T01:41:56;14.40;99.90
61841;DHT22;47773;53.174;6.614;2023-09-19T01:45:31;14.30;99.90
61841;DHT22;47773;53.174;6.614;2023-09-19T01:47:35;14.30;99.90
61841;DHT22;47773;53.174;6.614;2023-09-19T01:52:46;14.30;99.90
61841;DHT22;47773;53.174;6.614;2023-09-19T01:55:14;14.30;99.90
61841;DHT22;47773;53.174;6.614;2023-09-19T01:58:01;14.20;99.90
61841;DHT22;47773;53.174;6.614;2023-09-19T02:00:33;14.30;99.90
61841;DHT22;47773;53.174;6.614;2023-09-19T02:03:00;14.30;99.90
61841;DHT22;47773;53.174;6.614;2023-09-19T02:05:27;14.20;99.90
61841;DHT22;47773;53.174;6.614;2023-09-19T02:07:53;14.20;99.90
61841;DHT22;47773;53.174;6.614;2023-09-19T02:10:20;14.20;99.90
61841;DHT22;47773;53.174;6.614;2023-09-19T02:12:46;14.20;99.90
61841;DHT22;47773;53.174;6.614;2023-09-19T02:15:12;14.20;99.90
61841;DHT22;47773;53.174;6.614;2023-09-19T02:17:38;14.20;99.90
61841;DHT22;47773;53.174;6.614;2023-09-19T02:20:04;14.20;99.90
61841;DHT22;47773;53.174;6.614;2023-09-19T02:22:40;14.10;99.90
61841;DHT22;47773;53.174;6.614;2023-09-19T02:25:06;14.10;99.90
61841;DHT22;47773;53.174;6.614;2023-09-19T02:27:33;14.10;99.90
61841;DHT22;47773;53.174;6.614;2023-09-19T02:29:58;14.00;99.90
61841;DHT22;47773;53.174;6.614;2023-09-19T02:32:25;14.00;99.90
61841;DHT22;47773;53.174;6.614;2023-09-19T02:34:51;14.00;99.90
61841;DHT22;47773;53.174;6.614;2023-09-19T02:37:17;14.00;99.90
61841;DHT22;47773;53.174;6.614;2023-09-19T02:39:44;13.90;99.90
61841;DHT22;47773;53.174;6.614;2023-09-19T02:42:10;13.90;99.90
61841;DHT22;47773;53.174;6.614;2023-09-19T02:44:35;13.90;99.90
61841;DHT22;47773;53.174;6.614;2023-09-19T02:47:01;13.90;99.90
61841;DHT22;47773;53.174;6.614;2023-09-19T02:49:26;13.80;99.90
61841;DHT22;47773;53.174;6.614;2023-09-19T02:51:52;13.80;99.90
61841;DHT22;47773;53.174;6.614;2023-09-19T02:54:18;13.80;99.90
61841;DHT22;47773;53.174;6.614;2023-09-19T02:56:44;13.80;99.90
61841;DHT22;47773;53.174;6.614;2023-09-19T02:59:10;13.80;99.90
61841;DHT22;47773;53.174;6.614;2023-09-19T03:01:36;13.70;99.90
61841;DHT22;47773;53.174;6.614;2023-09-19T03:04:04;13.70;99.90
61841;DHT22;47773;53.174;6.614;2023-09-19T03:06:32;13.70;99.90
61841;DHT22;47773;53.174;6.614;2023-09-19T03:08:58;13.70;99.90
61841;DHT22;47773;53.174;6.614;2023-09-19T03:11:25;13.70;99.90
61841;DHT22;47773;53.174;6.614;2023-09-19T03:13:54;13.70;99.90
61841;DHT22;47773;53.174;6.614;2023-09-19T03:16:20;13.70;99.90
61841;DHT22;47773;53.174;6.614;2023-09-19T03:18:48;13.70;99.90
61841;DHT22;47773;53.174;6.614;2023-09-19T03:21:15;13.70;99.90
61841;DHT22;47773;53.174;6.614;2023-09-19T03:23:42;13.70;99.90
61841;DHT22;47773;53.174;6.614;2023-09-19T03:26:11;13.70;99.90
61841;DHT22;47773;53.174;6.614;2023-09-19T03:28:38;13.70;99.90
61841;DHT22;47773;53.174;6.614;2023-09-19T03:31:06;13.60;99.90
61841;DHT22;47773;53.174;6.614;2023-09-19T03:33:32;13.70;99.90
61841;DHT22;47773;53.174;6.614;2023-09-19T03:35:59;13.60;99.90
61841;DHT22;47773;53.174;6.614;2023-09-19T03:38:26;13.60;99.90
61841;DHT22;47773;53.174;6.614;2023-09-19T03:40:52;13.60;99.90
61841;DHT22;47773;53.174;6.614;2023-09-19T03:43:18;13.60;99.90
61841;DHT22;47773;53.174;6.614;2023-09-19T03:45:44;13.60;99.90
61841;DHT22;47773;53.174;6.614;2023-09-19T03:48:12;13.60;99.90
61841;DHT22;47773;53.174;6.614;2023-09-19T03:50:38;13.60;99.90
61841;DHT22;47773;53.174;6.614;2023-09-19T03:53:05;13.60;99.90
61841;DHT22;47773;53.174;6.614;2023-09-19T03:55:32;13.60;99.90
61841;DHT22;47773;53.174;6.614;2023-09-19T03:58:01;13.60;99.90
61841;DHT22;47773;53.174;6.614;2023-09-19T04:00:27;13.50;99.90
61841;DHT22;47773;53.174;6.614;2023-09-19T04:02:55;13.50;99.90
61841;DHT22;47773;53.174;6.614;2023-09-19T04:05:22;13.60;99.90
61841;DHT22;47773;53.174;6.614;2023-09-19T04:07:48;13.60;99.90
61841;DHT22;47773;53.174;6.614;2023-09-19T04:10:14;13.60;99.90
61841;DHT22;47773;53.174;6.614;2023-09-19T04:12:40;13.70;99.90
61841;DHT22;47773;53.174;6.614;2023-09-19T04:15:06;13.60;99.90
61841;DHT22;47773;53.174;6.614;2023-09-19T04:17:32;13.70;99.90
61841;DHT22;47773;53.174;6.614;2023-09-19T04:19:59;13.70;99.90
61841;DHT22;47773;53.174;6.614;2023-09-19T04:22:25;13.70;99.90
61841;DHT22;47773;53.174;6.614;2023-09-19T04:24:50;13.70;99.90
61841;DHT22;47773;53.174;6.614;2023-09-19T04:27:16;13.70;99.90
61841;DHT22;47773;53.174;6.614;2023-09-19T04:29:42;13.70;99.90
61841;DHT22;47773;53.174;6.614;2023-09-19T04:32:08;13.80;99.90
61841;DHT22;47773;53.174;6.614;2023-09-19T04:34:35;13.80;99.90
61841;DHT22;47773;53.174;6.614;2023-09-19T04:37:01;13.80;99.90
61841;DHT22;47773;53.174;6.614;2023-09-19T04:39:27;13.80;99.90
61841;DHT22;47773;53.174;6.614;2023-09-19T04:41:54;13.80;99.90
61841;DHT22;47773;53.174;6.614;2023-09-19T04:44:20;13.90;99.90
61841;DHT22;47773;53.174;6.614;2023-09-19T04:46:46;13.80;99.90
61841;DHT22;47773;53.174;6.614;2023-09-19T04:49:12;13.80;99.90
61841;DHT22;47773;53.174;6.614;2023-09-19T04:51:39;13.80;99.90
61841;DHT22;47773;53.174;6.614;2023-09-19T04:54:05;13.80;99.90
61841;DHT22;47773;53.174;6.614;2023-09-19T04:56:31;13.80;99.90
61841;DHT22;47773;53.174;6.614;2023-09-19T04:58:58;13.80;99.90
61841;DHT22;47773;53.174;6.614;2023-09-19T05:01:24;13.80;99.90
61841;DHT22;47773;53.174;6.614;2023-09-19T05:03:50;13.80;99.90
61841;DHT22;47773;53.174;6.614;2023-09-19T05:06:22;13.80;99.90
61841;DHT22;47773;53.174;6.614;2023-09-19T05:08:48;13.80;99.90
61841;DHT22;47773;53.174;6.614;2023-09-19T05:11:21;13.90;99.90
61841;DHT22;47773;53.174;6.614;2023-09-19T05:13:48;13.80;99.90
61841;DHT22;47773;53.174;6.614;2023-09-19T05:16:18;13.90;99.90
61841;DHT22;47773;53.174;6.614;2023-09-19T05:18:44;13.90;99.90
61841;DHT22;47773;53.174;6.614;2023-09-19T05:21:10;13.90;99.90
61841;DHT22;47773;53.174;6.614;2023-09-19T05:23:35;13.90;99.90
61841;DHT22;47773;53.174;6.614;2023-09-19T05:26:02;13.90;99.90
61841;DHT22;47773;53.174;6.614;2023-09-19T05:28:29;13.90;99.90
61841;DHT22;47773;53.174;6.614;2023-09-19T05:30:55;13.90;99.90
61841;DHT22;47773;53.174;6.614;2023-09-19T05:33:21;13.90;99.90
61841;DHT22;47773;53.174;6.614;2023-09-19T05:35:49;13.90;99.90
61841;DHT22;47773;53.174;6.614;2023-09-19T05:38:15;13.90;99.90
61841;DHT22;47773;53.174;6.614;2023-09-19T05:40:45;13.90;99.90
61841;DHT22;47773;53.174;6.614;2023-09-19T05:43:10;13.90;99.90
61841;DHT22;47773;53.174;6.614;2023-09-19T05:45:36;13.90;99.90
61841;DHT22;47773;53.174;6.614;2023-09-19T05:48:14;13.90;99.90
61841;DHT22;47773;53.174;6.614;2023-09-19T05:50:41;13.90;99.90
61841;DHT22;47773;53.174;6.614;2023-09-19T05:53:07;13.90;99.90
61841;DHT22;47773;53.174;6.614;2023-09-19T05:55:33;13.90;99.90
61841;DHT22;47773;53.174;6.614;2023-09-19T05:57:59;14.00;99.90
61841;DHT22;47773;53.174;6.614;2023-09-19T06:00:25;14.00;99.90
61841;DHT22;47773;53.174;6.614;2023-09-19T06:02:58;14.00;99.90
61841;DHT22;47773;53.174;6.614;2023-09-19T06:05:24;14.00;99.90
61841;DHT22;47773;53.174;6.614;2023-09-19T06:07:53;14.00;99.90
61841;DHT22;47773;53.174;6.614;2023-09-19T06:10:19;14.10;99.90
61841;DHT22;47773;53.174;6.614;2023-09-19T06:12:49;14.10;99.90
61841;DHT22;47773;53.174;6.614;2023-09-19T06:15:16;14.10;99.90
61841;DHT22;47773;53.174;6.614;2023-09-19T06:17:53;14.10;99.90
61841;DHT22;47773;53.174;6.614;2023-09-19T06:20:23;14.10;99.90
61841;DHT22;47773;53.174;6.614;2023-09-19T06:22:49;14.20;99.90
61841;DHT22;47773;53.174;6.614;2023-09-19T06:25:16;14.20;99.90
61841;DHT22;47773;53.174;6.614;2023-09-19T06:27:53;14.20;99.90
61841;DHT22;47773;53.174;6.614;2023-09-19T06:30:21;14.30;99.90
61841;DHT22;47773;53.174;6.614;2023-09-19T06:32:47;14.30;99.90
61841;DHT22;47773;53.174;6.614;2023-09-19T06:35:15;14.30;99.90
61841;DHT22;47773;53.174;6.614;2023-09-19T06:37:42;14.30;99.90
61841;DHT22;47773;53.174;6.614;2023-09-19T06:40:11;14.40;99.90
61841;DHT22;47773;53.174;6.614;2023-09-19T06:42:41;14.40;99.90
61841;DHT22;47773;53.174;6.614;2023-09-19T06:45:08;14.40;99.90
61841;DHT22;47773;53.174;6.614;2023-09-19T06:47:37;14.50;99.90
61841;DHT22;47773;53.174;6.614;2023-09-19T06:50:02;14.50;99.90
61841;DHT22;47773;53.174;6.614;2023-09-19T06:52:29;14.50;99.90
61841;DHT22;47773;53.174;6.614;2023-09-19T06:54:54;14.50;99.90
61841;DHT22;47773;53.174;6.614;2023-09-19T06:57:20;14.60;99.90
61841;DHT22;47773;53.174;6.614;2023-09-19T06:59:46;14.70;99.90
61841;DHT22;47773;53.174;6.614;2023-09-19T07:02:11;14.80;99.90
61841;DHT22;47773;53.174;6.614;2023-09-19T07:04:39;14.80;99.90
61841;DHT22;47773;53.174;6.614;2023-09-19T07:07:04;14.90;99.90
61841;DHT22;47773;53.174;6.614;2023-09-19T07:09:30;15.00;99.90
61841;DHT22;47773;53.174;6.614;2023-09-19T07:11:57;15.00;99.90
61841;DHT22;47773;53.174;6.614;2023-09-19T07:14:22;15.00;99.90
61841;DHT22;47773;53.174;6.614;2023-09-19T07:16:48;15.10;99.90
61841;DHT22;47773;53.174;6.614;2023-09-19T07:19:15;15.10;99.90
61841;DHT22;47773;53.174;6.614;2023-09-19T07:21:40;15.10;99.90
61841;DHT22;47773;53.174;6.614;2023-09-19T07:24:07;15.20;99.90
61841;DHT22;47773;53.174;6.614;2023-09-19T07:26:33;15.20;99.90
61841;DHT22;47773;53.174;6.614;2023-09-19T07:28:59;15.30;99.90
61841;DHT22;47773;53.174;6.614;2023-09-19T07:31:27;15.30;99.90
61841;DHT22;47773;53.174;6.614;2023-09-19T07:33:54;15.30;99.90
61841;DHT22;47773;53.174;6.614;2023-09-19T07:36:19;15.30;99.90
61841;DHT22;47773;53.174;6.614;2023-09-19T07:38:45;15.30;99.90
61841;DHT22;47773;53.174;6.614;2023-09-19T07:41:11;15.30;99.90
61841;DHT22;47773;53.174;6.614;2023-09-19T07:43:36;15.30;99.90
61841;DHT22;47773;53.174;6.614;2023-09-19T07:46:08;15.30;99.90
61841;DHT22;47773;53.174;6.614;2023-09-19T07:48:37;15.30;99.90
61841;DHT22;47773;53.174;6.614;2023-09-19T07:51:07;15.40;99.90
61841;DHT22;47773;53.174;6.614;2023-09-19T07:53:35;15.40;99.90
61841;DHT22;47773;53.174;6.614;2023-09-19T07:56:08;15.50;99.90
61841;DHT22;47773;53.174;6.614;2023-09-19T07:58:34;15.50;99.90
61841;DHT22;47773;53.174;6.614;2023-09-19T08:01:05;15.60;99.90
61841;DHT22;47773;53.174;6.614;2023-09-19T08:03:30;15.60;99.90
61841;DHT22;47773;53.174;6.614;2023-09-19T08:05:56;15.50;99.90
61841;DHT22;47773;53.174;6.614;2023-09-19T08:08:23;15.50;99.90
61841;DHT22;47773;53.174;6.614;2023-09-19T08:10:55;15.50;99.90
61841;DHT22;47773;53.174;6.614;2023-09-19T08:13:22;15.60;99.90
61841;DHT22;47773;53.174;6.614;2023-09-19T08:15:48;15.60;99.90
61841;DHT22;47773;53.174;6.614;2023-09-19T08:18:14;15.60;99.90
61841;DHT22;47773;53.174;6.614;2023-09-19T08:20:41;15.70;99.90
61841;DHT22;47773;53.174;6.614;2023-09-19T08:23:08;15.70;99.90
61841;DHT22;47773;53.174;6.614;2023-09-19T08:25:34;15.80;99.90
61841;DHT22;47773;53.174;6.614;2023-09-19T08:27:59;15.80;99.90
61841;DHT22;47773;53.174;6.614;2023-09-19T08:30:29;15.90;99.90
61841;DHT22;47773;53.174;6.614;2023-09-19T08:32:59;15.90;99.90
61841;DHT22;47773;53.174;6.614;2023-09-19T08:35:26;15.90;99.90
61841;DHT22;47773;53.174;6.614;2023-09-19T08:37:52;15.90;99.90
61841;DHT22;47773;53.174;6.614;2023-09-19T08:40:18;16.00;99.90
61841;DHT22;47773;53.174;6.614;2023-09-19T08:42:52;16.00;99.90
61841;DHT22;47773;53.174;6.614;2023-09-19T08:45:20;16.10;99.90
61841;DHT22;47773;53.174;6.614;2023-09-19T08:50:43;16.10;99.90
61841;DHT22;47773;53.174;6.614;2023-09-19T08:53:11;16.10;99.90
61841;DHT22;47773;53.174;6.614;2023-09-19T08:55:41;16.20;99.90
61841;DHT22;47773;53.174;6.614;2023-09-19T08:58:10;16.20;99.90
61841;DHT22;47773;53.174;6.614;2023-09-19T09:00:36;16.20;99.90
61841;DHT22;47773;53.174;6.614;2023-09-19T09:03:03;16.30;99.90
61841;DHT22;47773;53.174;6.614;2023-09-19T09:05:32;16.30;99.90
61841;DHT22;47773;53.174;6.614;2023-09-19T09:07:58;16.20;99.90
61841;DHT22;47773;53.174;6.614;2023-09-19T09:10:25;16.30;99.90
61841;DHT22;47773;53.174;6.614;2023-09-19T09:12:54;16.30;99.90
61841;DHT22;47773;53.174;6.614;2023-09-19T09:15:23;16.30;99.90
61841;DHT22;47773;53.174;6.614;2023-09-19T09:17:50;16.40;99.90
61841;DHT22;47773;53.174;6.614;2023-09-19T09:20:19;16.40;99.90
61841;DHT22;47773;53.174;6.614;2023-09-19T09:22:52;16.30;99.90
61841;DHT22;47773;53.174;6.614;2023-09-19T09:25:22;16.40;99.90
61841;DHT22;47773;53.174;6.614;2023-09-19T09:28:00;16.40;99.90
61841;DHT22;47773;53.174;6.614;2023-09-19T09:30:34;16.50;99.90
61841;DHT22;47773;53.174;6.614;2023-09-19T09:33:14;16.60;99.90
61841;DHT22;47773;53.174;6.614;2023-09-19T09:38:18;16.90;99.90
61841;DHT22;47773;53.174;6.614;2023-09-19T09:40:49;17.00;99.90
61841;DHT22;47773;53.174;6.614;2023-09-19T09:43:37;17.30;99.90
61841;DHT22;47773;53.174;6.614;2023-09-19T09:49:00;17.50;99.90
61841;DHT22;47773;53.174;6.614;2023-09-19T09:52:05;17.50;99.90
61841;DHT22;47773;53.174;6.614;2023-09-19T09:55:01;17.50;99.90
61841;DHT22;47773;53.174;6.614;2023-09-19T09:57:32;17.60;99.90
61841;DHT22;47773;53.174;6.614;2023-09-19T09:59:59;17.60;99.90
61841;DHT22;47773;53.174;6.614;2023-09-19T10:02:41;17.60;99.90
61841;DHT22;47773;53.174;6.614;2023-09-19T10:05:13;17.60;99.90
61841;DHT22;47773;53.174;6.614;2023-09-19T10:07:47;17.70;99.90
61841;DHT22;47773;53.174;6.614;2023-09-19T10:10:32;17.90;99.90
61841;DHT22;47773;53.174;6.614;2023-09-19T10:13:12;18.10;99.90
61841;DHT22;47773;53.174;6.614;2023-09-19T10:15:49;18.20;99.90
61841;DHT22;47773;53.174;6.614;2023-09-19T10:20:45;18.30;99.90
61841;DHT22;47773;53.174;6.614;2023-09-19T10:23:12;18.30;99.90
61841;DHT22;47773;53.174;6.614;2023-09-19T10:25:42;18.40;99.90
61841;DHT22;47773;53.174;6.614;2023-09-19T10:28:12;18.40;99.90
61841;DHT22;47773;53.174;6.614;2023-09-19T10:30:42;18.50;99.90
61841;DHT22;47773;53.174;6.614;2023-09-19T10:33:14;18.60;99.90
61841;DHT22;47773;53.174;6.614;2023-09-19T10:35:48;18.60;99.90
61841;DHT22;47773;53.174;6.614;2023-09-19T10:38:17;18.60;99.90
61841;DHT22;47773;53.174;6.614;2023-09-19T10:40:44;18.70;99.90
61841;DHT22;47773;53.174;6.614;2023-09-19T10:43:16;18.70;99.90
61841;DHT22;47773;53.174;6.614;2023-09-19T10:45:47;18.90;99.90
61841;DHT22;47773;53.174;6.614;2023-09-19T10:48:18;18.90;99.90
61841;DHT22;47773;53.174;6.614;2023-09-19T10:51:12;19.00;99.90
61841;DHT22;47773;53.174;6.614;2023-09-19T10:53:52;19.00;99.90
61841;DHT22;47773;53.174;6.614;2023-09-19T10:56:25;19.00;99.90
61841;DHT22;47773;53.174;6.614;2023-09-19T10:59:11;19.00;99.90
61841;DHT22;47773;53.174;6.614;2023-09-19T11:01:55;19.20;99.90
61841;DHT22;47773;53.174;6.614;2023-09-19T11:04:33;19.40;99.90
61841;DHT22;47773;53.174;6.614;2023-09-19T11:09:54;19.10;99.90
61841;DHT22;47773;53.174;6.614;2023-09-19T11:14:56;18.70;99.90
61841;DHT22;47773;53.174;6.614;2023-09-19T11:17:35;18.60;99.90
61841;DHT22;47773;53.174;6.614;2023-09-19T11:30:45;18.40;99.90
61841;DHT22;47773;53.174;6.614;2023-09-19T11:33:20;18.30;99.90
61841;DHT22;47773;53.174;6.614;2023-09-19T11:36:10;18.20;99.90
61841;DHT22;47773;53.174;6.614;2023-09-19T11:49:44;18.20;99.90
61841;DHT22;47773;53.174;6.614;2023-09-19T11:52:10;18.20;99.90
61841;DHT22;47773;53.174;6.614;2023-09-19T11:54:40;18.20;99.90
61841;DHT22;47773;53.174;6.614;2023-09-19T11:57:09;18.20;99.90
61841;DHT22;47773;53.174;6.614;2023-09-19T11:59:38;18.20;99.90
61841;DHT22;47773;53.174;6.614;2023-09-19T12:02:05;18.20;99.90
61841;DHT22;47773;53.174;6.614;2023-09-19T12:04:37;18.20;99.90
61841;DHT22;47773;53.174;6.614;2023-09-19T12:07:05;18.10;99.90
61841;DHT22;47773;53.174;6.614;2023-09-19T12:09:39;18.10;99.90
61841;DHT22;47773;53.174;6.614;2023-09-19T12:12:06;18.10;99.90
61841;DHT22;47773;53.174;6.614;2023-09-19T12:14:32;18.00;99.90
61841;DHT22;47773;53.174;6.614;2023-09-19T12:16:58;18.00;99.90
61841;DHT22;47773;53.174;6.614;2023-09-19T12:19:26;18.00;99.90
61841;DHT22;47773;53.174;6.614;2023-09-19T12:21:59;18.10;99.90
61841;DHT22;47773;53.174;6.614;2023-09-19T12:24:29;18.10;99.90
61841;DHT22;47773;53.174;6.614;2023-09-19T12:27:00;18.10;99.90
61841;DHT22;47773;53.174;6.614;2023-09-19T12:29:30;18.10;99.90
61841;DHT22;47773;53.174;6.614;2023-09-19T12:31:58;18.10;99.90
61841;DHT22;47773;53.174;6.614;2023-09-19T12:34:28;18.00;99.90
61841;DHT22;47773;53.174;6.614;2023-09-19T12:37:13;18.00;99.90
61841;DHT22;47773;53.174;6.614;2023-09-19T12:39:53;18.00;99.90
61841;DHT22;47773;53.174;6.614;2023-09-19T12:42:40;17.90;99.90
61841;DHT22;47773;53.174;6.614;2023-09-19T12:45:07;17.90;99.90
61841;DHT22;47773;53.174;6.614;2023-09-19T12:47:35;18.00;99.90
61841;DHT22;47773;53.174;6.614;2023-09-19T12:50:14;18.10;99.90
61841;DHT22;47773;53.174;6.614;2023-09-19T12:52:55;18.10;99.90
61841;DHT22;47773;53.174;6.614;2023-09-19T12:55:31;18.10;99.90
61841;DHT22;47773;53.174;6.614;2023-09-19T12:58:14;18.10;99.90
61841;DHT22;47773;53.174;6.614;2023-09-19T13:00:45;18.20;99.90
61841;DHT22;47773;53.174;6.614;2023-09-19T13:05:57;18.20;99.90
61841;DHT22;47773;53.174;6.614;2023-09-19T13:08:38;18.20;99.90
61841;DHT22;47773;53.174;6.614;2023-09-19T13:11:15;18.10;99.90
61841;DHT22;47773;53.174;6.614;2023-09-19T13:13:45;18.10;99.90
61841;DHT22;47773;53.174;6.614;2023-09-19T13:16:15;18.10;99.90
61841;DHT22;47773;53.174;6.614;2023-09-19T13:18:47;18.10;99.90
61841;DHT22;47773;53.174;6.614;2023-09-19T13:21:13;18.10;99.90
61841;DHT22;47773;53.174;6.614;2023-09-19T13:23:53;18.10;99.90
61841;DHT22;47773;53.174;6.614;2023-09-19T13:26:27;18.10;99.90
61841;DHT22;47773;53.174;6.614;2023-09-19T13:28:56;18.10;99.90
61841;DHT22;47773;53.174;6.614;2023-09-19T13:31:21;18.00;99.90
61841;DHT22;47773;53.174;6.614;2023-09-19T13:33:49;18.00;99.90
61841;DHT22;47773;53.174;6.614;2023-09-19T13:36:15;18.00;99.90
61841;DHT22;47773;53.174;6.614;2023-09-19T13:38:41;18.00;99.90
61841;DHT22;47773;53.174;6.614;2023-09-19T13:41:09;18.00;99.90
61841;DHT22;47773;53.174;6.614;2023-09-19T13:43:36;18.00;99.90
61841;DHT22;47773;53.174;6.614;2023-09-19T13:46:02;18.00;99.90
61841;DHT22;47773;53.174;6.614;2023-09-19T13:48:28;17.90;99.90
61841;DHT22;47773;53.174;6.614;2023-09-19T13:50:55;17.90;99.90
61841;DHT22;47773;53.174;6.614;2023-09-19T13:53:21;17.80;99.90
61841;DHT22;47773;53.174;6.614;2023-09-19T13:55:47;17.80;99.90
61841;DHT22;47773;53.174;6.614;2023-09-19T13:58:14;17.90;99.90
61841;DHT22;47773;53.174;6.614;2023-09-19T14:00:40;17.90;99.90
61841;DHT22;47773;53.174;6.614;2023-09-19T14:03:06;18.00;99.90
61841;DHT22;47773;53.174;6.614;2023-09-19T14:05:31;18.10;99.90
61841;DHT22;47773;53.174;6.614;2023-09-19T14:07:58;18.20;99.90
61841;DHT22;47773;53.174;6.614;2023-09-19T14:10:25;18.20;99.90
61841;DHT22;47773;53.174;6.614;2023-09-19T14:12:55;18.20;99.90
61841;DHT22;47773;53.174;6.614;2023-09-19T14:15:23;18.20;99.90
61841;DHT22;47773;53.174;6.614;2023-09-19T14:17:58;18.20;99.90
61841;DHT22;47773;53.174;6.614;2023-09-19T14:20:25;18.20;99.90
61841;DHT22;47773;53.174;6.614;2023-09-19T14:22:53;18.20;99.90
61841;DHT22;47773;53.174;6.614;2023-09-19T14:25:19;18.20;99.90
61841;DHT22;47773;53.174;6.614;2023-09-19T14:27:44;18.20;99.90
61841;DHT22;47773;53.174;6.614;2023-09-19T14:30:10;18.20;99.90
61841;DHT22;47773;53.174;6.614;2023-09-19T14:32:36;18.20;99.90
61841;DHT22;47773;53.174;6.614;2023-09-19T14:35:03;18.20;99.90
61841;DHT22;47773;53.174;6.614;2023-09-19T14:37:29;18.20;99.90
61841;DHT22;47773;53.174;6.614;2023-09-19T14:39:54;18.20;99.90
61841;DHT22;47773;53.174;6.614;2023-09-19T14:42:20;18.20;99.90
61841;DHT22;47773;53.174;6.614;2023-09-19T14:44:46;18.20;99.90
61841;DHT22;47773;53.174;6.614;2023-09-19T14:47:16;18.30;99.90
61841;DHT22;47773;53.174;6.614;2023-09-19T14:49:42;18.30;99.90
61841;DHT22;47773;53.174;6.614;2023-09-19T14:52:09;18.30;99.90
61841;DHT22;47773;53.174;6.614;2023-09-19T14:54:36;18.30;99.90
61841;DHT22;47773;53.174;6.614;2023-09-19T14:57:04;18.30;99.90
61841;DHT22;47773;53.174;6.614;2023-09-19T14:59:32;18.30;99.90
61841;DHT22;47773;53.174;6.614;2023-09-19T15:01:59;18.30;99.90
61841;DHT22;47773;53.174;6.614;2023-09-19T15:04:26;18.30;99.90
61841;DHT22;47773;53.174;6.614;2023-09-19T15:06:53;18.30;99.90
61841;DHT22;47773;53.174;6.614;2023-09-19T15:09:21;18.20;99.90
61841;DHT22;47773;53.174;6.614;2023-09-19T15:11:55;18.20;99.90
61841;DHT22;47773;53.174;6.614;2023-09-19T15:14:24;18.20;99.90
61841;DHT22;47773;53.174;6.614;2023-09-19T15:16:50;18.10;99.90
61841;DHT22;47773;53.174;6.614;2023-09-19T15:19:16;18.10;99.90
61841;DHT22;47773;53.174;6.614;2023-09-19T15:21:43;18.10;99.90
61841;DHT22;47773;53.174;6.614;2023-09-19T15:24:09;18.10;99.90
61841;DHT22;47773;53.174;6.614;2023-09-19T15:26:36;18.10;99.90
61841;DHT22;47773;53.174;6.614;2023-09-19T15:29:07;18.00;99.90
61841;DHT22;47773;53.174;6.614;2023-09-19T15:31:34;18.00;99.90
61841;DHT22;47773;53.174;6.614;2023-09-19T15:34:02;18.00;99.90
61841;DHT22;47773;53.174;6.614;2023-09-19T15:36:28;17.90;99.90
61841;DHT22;47773;53.174;6.614;2023-09-19T15:39:04;17.80;99.90
61841;DHT22;47773;53.174;6.614;2023-09-19T15:41:40;17.70;99.90
61841;DHT22;47773;53.174;6.614;2023-09-19T15:44:19;17.60;99.90
61841;DHT22;47773;53.174;6.614;2023-09-19T15:46:45;17.60;99.90
61841;DHT22;47773;53.174;6.614;2023-09-19T15:49:12;17.50;99.90
61841;DHT22;47773;53.174;6.614;2023-09-19T15:51:38;17.50;99.90
61841;DHT22;47773;53.174;6.614;2023-09-19T15:54:15;17.50;99.90
61841;DHT22;47773;53.174;6.614;2023-09-19T15:56:42;17.50;99.90
61841;DHT22;47773;53.174;6.614;2023-09-19T15:59:09;17.50;99.90
61841;DHT22;47773;53.174;6.614;2023-09-19T16:01:44;17.50;99.90
61841;DHT22;47773;53.174;6.614;2023-09-19T16:04:10;17.50;99.90
61841;DHT22;47773;53.174;6.614;2023-09-19T16:06:36;17.50;99.90
61841;DHT22;47773;53.174;6.614;2023-09-19T16:09:03;17.50;99.90
61841;DHT22;47773;53.174;6.614;2023-09-19T16:11:32;17.50;99.90
61841;DHT22;47773;53.174;6.614;2023-09-19T16:13:58;17.50;99.90
61841;DHT22;47773;53.174;6.614;2023-09-19T16:16:26;17.50;99.90
61841;DHT22;47773;53.174;6.614;2023-09-19T16:18:57;17.50;99.90
61841;DHT22;47773;53.174;6.614;2023-09-19T16:21:24;17.40;99.90
61841;DHT22;47773;53.174;6.614;2023-09-19T16:23:52;17.40;99.90
61841;DHT22;47773;53.174;6.614;2023-09-19T16:26:22;17.40;99.90
61841;DHT22;47773;53.174;6.614;2023-09-19T16:28:50;17.40;99.90
61841;DHT22;47773;53.174;6.614;2023-09-19T16:31:16;17.40;99.90
61841;DHT22;47773;53.174;6.614;2023-09-19T16:33:46;17.40;99.90
61841;DHT22;47773;53.174;6.614;2023-09-19T16:36:16;17.30;99.90